sensor_id;sensor_type;location;lat;lon;timestamp;temperature;humidity
27559;DHT22;15002;52.028;5.670;2024-01-10T00:01:18;-1.20;99.90
27559;DHT22;15002;52.028;5.670;2024-01-10T00:03:44;-1.00;99.90
27559;DHT22;15002;52.028;5.670;2024-01-10T00:06:10;-1.30;99.90
27559;DHT22;15002;52.028;5.670;2024-01-10T00:08:36;-1.20;99.90
27559;DHT22;15002;52.028;5.670;2024-01-10T00:11:02;-1.30;99.90
27559;DHT22;15002;52.028;5.670;2024-01-10T00:13:27;-1.30;99.90
27559;DHT22;15002;52.028;5.670;2024-01-10T00:15:53;-1.60;99.90
27559;DHT22;15002;52.028;5.670;2024-01-10T00:18:21;-1.70;99.90
27559;DHT22;15002;52.028;5.670;2024-01-10T00:20:46;-1.60;99.90
27559;DHT22;15002;52.028;5.670;2024-01-10T00:23:12;-1.80;99.90
27559;DHT22;15002;52.028;5.670;2024-01-10T00:25:38;-1.70;99.90
27559;DHT22;15002;52.028;5.670;2024-01-10T00:28:05;-1.80;99.90
27559;DHT22;15002;52.028;5.670;2024-01-10T00:30:30;-1.50;99.90
27559;DHT22;15002;52.028;5.670;2024-01-10T00:32:56;-1.30;99.90
27559;DHT22;15002;52.028;5.670;2024-01-10T00:35:22;-1.60;99.90
27559;DHT22;15002;52.028;5.670;2024-01-10T00:37:47;-1.40;99.90
27559;DHT22;15002;52.028;5.670;2024-01-10T00:40:13;-1.50;99.90
27559;DHT22;15002;52.028;5.670;2024-01-10T00:42:39;-1.70;99.90
27559;DHT22;15002;52.028;5.670;2024-01-10T00:45:05;-1.80;99.90
27559;DHT22;15002;52.028;5.670;2024-01-10T00:47:30;-1.60;99.90
27559;DHT22;15002;52.028;5.670;2024-01-10T00:49:56;-1.50;99.90
27559;DHT22;15002;52.028;5.670;2024-01-10T00:52:22;-1.60;99.90
27559;DHT22;15002;52.028;5.670;2024-01-10T00:54:47;-1.60;99.90
27559;DHT22;15002;52.028;5.670;2024-01-10T00:57:13;-1.50;99.90
27559;DHT22;15002;52.028;5.670;2024-01-10T00:59:40;-1.40;99.90
27559;DHT22;15002;52.028;5.670;2024-01-10T01:02:06;-1.70;99.90
27559;DHT22;15002;52.028;5.670;2024-01-10T01:04:31;-1.60;99.90
27559;DHT22;15002;52.028;5.670;2024-01-10T01:06:57;-1.60;99.90
27559;DHT22;15002;52.028;5.670;2024-01-10T01:09:23;-1.10;99.90
27559;DHT22;15002;52.028;5.670;2024-01-10T01:11:48;-1.30;99.90
27559;DHT22;15002;52.028;5.670;2024-01-10T01:14:14;-1.20;99.90
27559;DHT22;15002;52.028;5.670;2024-01-10T01:16:40;-1.20;99.90
27559;DHT22;15002;52.028;5.670;2024-01-10T01:19:05;-1.40;99.90
27559;DHT22;15002;52.028;5.670;2024-01-10T01:21:31;-1.50;99.90
27559;DHT22;15002;52.028;5.670;2024-01-10T01:23:56;-1.40;99.90
27559;DHT22;15002;52.028;5.670;2024-01-10T01:26:22;-1.60;99.90
27559;DHT22;15002;52.028;5.670;2024-01-10T01:28:47;-1.80;99.90
27559;DHT22;15002;52.028;5.670;2024-01-10T01:31:13;-1.80;99.90
27559;DHT22;15002;52.028;5.670;2024-01-10T01:33:39;-1.60;99.90
27559;DHT22;15002;52.028;5.670;2024-01-10T01:36:05;-1.90;99.90
27559;DHT22;15002;52.028;5.670;2024-01-10T01:38:31;-1.80;99.90
27559;DHT22;15002;52.028;5.670;2024-01-10T01:40:57;-1.80;99.90
27559;DHT22;15002;52.028;5.670;2024-01-10T01:43:24;-1.60;99.90
27559;DHT22;15002;52.028;5.670;2024-01-10T01:45:55;-1.80;99.90
27559;DHT22;15002;52.028;5.670;2024-01-10T01:48:21;-1.80;99.90
27559;DHT22;15002;52.028;5.670;2024-01-10T01:50:49;-2.00;99.90
27559;DHT22;15002;52.028;5.670;2024-01-10T01:53:16;-2.30;99.90
27559;DHT22;15002;52.028;5.670;2024-01-10T01:55:44;-2.50;99.90
27559;DHT22;15002;52.028;5.670;2024-01-10T01:58:11;-2.40;99.90
27559;DHT22;15002;52.028;5.670;2024-01-10T02:00:38;-2.40;99.90
27559;DHT22;15002;52.028;5.670;2024-01-10T02:03:09;-2.30;99.90
27559;DHT22;15002;52.028;5.670;2024-01-10T02:05:35;-2.00;99.90
27559;DHT22;15002;52.028;5.670;2024-01-10T02:08:01;-2.30;99.90
27559;DHT22;15002;52.028;5.670;2024-01-10T02:10:27;-2.40;99.90
27559;DHT22;15002;52.028;5.670;2024-01-10T02:12:53;-2.10;99.90
27559;DHT22;15002;52.028;5.670;2024-01-10T02:15:19;-2.20;99.90
27559;DHT22;15002;52.028;5.670;2024-01-10T02:17:45;-2.40;99.90
27559;DHT22;15002;52.028;5.670;2024-01-10T02:20:15;-2.50;99.90
27559;DHT22;15002;52.028;5.670;2024-01-10T02:22:43;-2.50;99.90
27559;DHT22;15002;52.028;5.670;2024-01-10T02:25:09;-2.40;99.90
27559;DHT22;15002;52.028;5.670;2024-01-10T02:27:41;-2.40;99.90
27559;DHT22;15002;52.028;5.670;2024-01-10T02:30:08;-2.20;99.90
27559;DHT22;15002;52.028;5.670;2024-01-10T02:32:34;-2.00;99.90
27559;DHT22;15002;52.028;5.670;2024-01-10T02:35:00;-2.00;99.90
27559;DHT22;15002;52.028;5.670;2024-01-10T02:37:26;-2.20;99.90
27559;DHT22;15002;52.028;5.670;2024-01-10T02:39:51;-2.20;99.90
27559;DHT22;15002;52.028;5.670;2024-01-10T02:42:17;-2.00;99.90
27559;DHT22;15002;52.028;5.670;2024-01-10T02:44:43;-1.90;99.90
27559;DHT22;15002;52.028;5.670;2024-01-10T02:47:12;-2.00;99.90
27559;DHT22;15002;52.028;5.670;2024-01-10T02:49:38;-1.90;99.90
27559;DHT22;15002;52.028;5.670;2024-01-10T02:52:04;-2.30;99.90
27559;DHT22;15002;52.028;5.670;2024-01-10T02:54:30;-2.20;99.90
27559;DHT22;15002;52.028;5.670;2024-01-10T02:56:56;-2.20;99.90
27559;DHT22;15002;52.028;5.670;2024-01-10T02:59:22;-2.40;99.90
27559;DHT22;15002;52.028;5.670;2024-01-10T03:01:47;-2.30;99.90
27559;DHT22;15002;52.028;5.670;2024-01-10T03:04:13;-2.40;99.90
27559;DHT22;15002;52.028;5.670;2024-01-10T03:06:39;-1.80;99.90
27559;DHT22;15002;52.028;5.670;2024-01-10T03:09:05;-1.90;99.90
27559;DHT22;15002;52.028;5.670;2024-01-10T03:11:31;-2.00;99.90
27559;DHT22;15002;52.028;5.670;2024-01-10T03:14:06;-2.00;99.90
27559;DHT22;15002;52.028;5.670;2024-01-10T03:16:32;-2.00;99.90
27559;DHT22;15002;52.028;5.670;2024-01-10T03:18:58;-2.00;99.90
27559;DHT22;15002;52.028;5.670;2024-01-10T03:21:24;-2.00;99.90
27559;DHT22;15002;52.028;5.670;2024-01-10T03:23:55;-1.80;99.90
27559;DHT22;15002;52.028;5.670;2024-01-10T03:26:20;-2.20;99.90
27559;DHT22;15002;52.028;5.670;2024-01-10T03:28:46;-2.00;99.90
27559;DHT22;15002;52.028;5.670;2024-01-10T03:31:12;-2.20;99.90
27559;DHT22;15002;52.028;5.670;2024-01-10T03:33:37;-1.90;99.90
27559;DHT22;15002;52.028;5.670;2024-01-10T03:36:04;-2.00;99.90
27559;DHT22;15002;52.028;5.670;2024-01-10T03:38:30;-1.80;99.90
27559;DHT22;15002;52.028;5.670;2024-01-10T03:40:56;-2.10;99.90
27559;DHT22;15002;52.028;5.670;2024-01-10T03:43:21;-2.30;99.90
27559;DHT22;15002;52.028;5.670;2024-01-10T03:45:47;-2.30;99.90
27559;DHT22;15002;52.028;5.670;2024-01-10T03:48:12;-2.10;99.90
27559;DHT22;15002;52.028;5.670;2024-01-10T03:50:38;-1.90;99.90
27559;DHT22;15002;52.028;5.670;2024-01-10T03:53:04;-1.70;99.90
27559;DHT22;15002;52.028;5.670;2024-01-10T03:55:29;-1.90;99.90
27559;DHT22;15002;52.028;5.670;2024-01-10T03:57:56;-2.20;99.90
27559;DHT22;15002;52.028;5.670;2024-01-10T04:00:21;-2.40;99.90
27559;DHT22;15002;52.028;5.670;2024-01-10T04:02:47;-2.40;99.90
27559;DHT22;15002;52.028;5.670;2024-01-10T04:05:13;-2.20;99.90
27559;DHT22;15002;52.028;5.670;2024-01-10T04:07:42;-2.10;99.90
27559;DHT22;15002;52.028;5.670;2024-01-10T04:10:12;-1.90;99.90
27559;DHT22;15002;52.028;5.670;2024-01-10T04:12:40;-2.20;99.90
27559;DHT22;15002;52.028;5.670;2024-01-10T04:15:06;-2.00;99.90
27559;DHT22;15002;52.028;5.670;2024-01-10T04:17:32;-1.90;99.90
27559;DHT22;15002;52.028;5.670;2024-01-10T04:19:58;-2.20;99.90
27559;DHT22;15002;52.028;5.670;2024-01-10T04:22:24;-2.20;99.90
27559;DHT22;15002;52.028;5.670;2024-01-10T04:24:50;-2.40;99.90
27559;DHT22;15002;52.028;5.670;2024-01-10T04:27:16;-2.50;99.90
27559;DHT22;15002;52.028;5.670;2024-01-10T04:29:43;-2.50;99.90
27559;DHT22;15002;52.028;5.670;2024-01-10T04:32:09;-2.30;99.90
27559;DHT22;15002;52.028;5.670;2024-01-10T04:34:35;-2.50;99.90
27559;DHT22;15002;52.028;5.670;2024-01-10T04:37:00;-2.50;99.90
27559;DHT22;15002;52.028;5.670;2024-01-10T04:39:26;-2.70;99.90
27559;DHT22;15002;52.028;5.670;2024-01-10T04:41:52;-2.50;99.90
27559;DHT22;15002;52.028;5.670;2024-01-10T04:44:17;-2.80;99.90
27559;DHT22;15002;52.028;5.670;2024-01-10T04:46:43;-2.80;99.90
27559;DHT22;15002;52.028;5.670;2024-01-10T04:49:09;-2.90;99.90
27559;DHT22;15002;52.028;5.670;2024-01-10T04:51:35;-2.90;99.90
27559;DHT22;15002;52.028;5.670;2024-01-10T04:54:01;-2.80;99.90
27559;DHT22;15002;52.028;5.670;2024-01-10T04:56:26;-2.70;99.90
27559;DHT22;15002;52.028;5.670;2024-01-10T04:58:52;-2.70;99.90
27559;DHT22;15002;52.028;5.670;2024-01-10T05:01:18;-2.70;99.90
27559;DHT22;15002;52.028;5.670;2024-01-10T05:03:44;-2.90;99.90
27559;DHT22;15002;52.028;5.670;2024-01-10T05:06:09;-2.80;99.90
27559;DHT22;15002;52.028;5.670;2024-01-10T05:08:35;-2.80;99.90
27559;DHT22;15002;52.028;5.670;2024-01-10T05:11:01;-2.80;99.90
27559;DHT22;15002;52.028;5.670;2024-01-10T05:13:27;-2.50;99.90
27559;DHT22;15002;52.028;5.670;2024-01-10T05:15:53;-2.60;99.90
27559;DHT22;15002;52.028;5.670;2024-01-10T05:18:20;-2.60;99.90
27559;DHT22;15002;52.028;5.670;2024-01-10T05:20:46;-2.60;99.90
27559;DHT22;15002;52.028;5.670;2024-01-10T05:23:12;-2.40;99.90
27559;DHT22;15002;52.028;5.670;2024-01-10T05:25:37;-2.80;99.90
27559;DHT22;15002;52.028;5.670;2024-01-10T05:28:03;-2.80;99.90
27559;DHT22;15002;52.028;5.670;2024-01-10T05:30:29;-2.60;99.90
27559;DHT22;15002;52.028;5.670;2024-01-10T05:32:55;-2.40;99.90
27559;DHT22;15002;52.028;5.670;2024-01-10T05:35:20;-2.60;99.90
27559;DHT22;15002;52.028;5.670;2024-01-10T05:37:46;-2.80;99.90
27559;DHT22;15002;52.028;5.670;2024-01-10T05:40:12;-2.60;99.90
27559;DHT22;15002;52.028;5.670;2024-01-10T05:42:37;-2.60;99.90
27559;DHT22;15002;52.028;5.670;2024-01-10T05:45:04;-2.40;99.90
27559;DHT22;15002;52.028;5.670;2024-01-10T05:47:30;-2.70;99.90
27559;DHT22;15002;52.028;5.670;2024-01-10T05:49:55;-2.60;99.90
27559;DHT22;15002;52.028;5.670;2024-01-10T05:52:21;-2.60;99.90
27559;DHT22;15002;52.028;5.670;2024-01-10T05:54:48;-2.70;99.90
27559;DHT22;15002;52.028;5.670;2024-01-10T05:57:17;-2.60;99.90
27559;DHT22;15002;52.028;5.670;2024-01-10T05:59:42;-2.50;99.90
27559;DHT22;15002;52.028;5.670;2024-01-10T06:02:08;-2.60;99.90
27559;DHT22;15002;52.028;5.670;2024-01-10T06:04:33;-2.30;99.90
27559;DHT22;15002;52.028;5.670;2024-01-10T06:06:59;-2.30;99.90
27559;DHT22;15002;52.028;5.670;2024-01-10T06:09:25;-2.30;99.90
27559;DHT22;15002;52.028;5.670;2024-01-10T06:11:50;-2.40;99.90
27559;DHT22;15002;52.028;5.670;2024-01-10T06:14:16;-2.20;99.90
27559;DHT22;15002;52.028;5.670;2024-01-10T06:16:42;-2.70;99.90
27559;DHT22;15002;52.028;5.670;2024-01-10T06:19:09;-2.70;99.90
27559;DHT22;15002;52.028;5.670;2024-01-10T06:21:35;-2.80;99.90
27559;DHT22;15002;52.028;5.670;2024-01-10T06:24:01;-2.50;99.90
27559;DHT22;15002;52.028;5.670;2024-01-10T06:26:27;-2.40;99.90
27559;DHT22;15002;52.028;5.670;2024-01-10T06:28:53;-2.30;99.90
27559;DHT22;15002;52.028;5.670;2024-01-10T06:31:19;-2.40;99.90
27559;DHT22;15002;52.028;5.670;2024-01-10T06:33:45;-2.30;99.90
27559;DHT22;15002;52.028;5.670;2024-01-10T06:36:11;-2.40;99.90
27559;DHT22;15002;52.028;5.670;2024-01-10T06:38:39;-2.60;99.90
27559;DHT22;15002;52.028;5.670;2024-01-10T06:41:11;-2.60;99.90
27559;DHT22;15002;52.028;5.670;2024-01-10T06:43:39;-2.30;99.90
27559;DHT22;15002;52.028;5.670;2024-01-10T06:46:06;-2.60;99.90
27559;DHT22;15002;52.028;5.670;2024-01-10T06:48:33;-2.60;99.90
27559;DHT22;15002;52.028;5.670;2024-01-10T06:50:59;-2.30;99.90
27559;DHT22;15002;52.028;5.670;2024-01-10T06:53:25;-2.70;99.90
27559;DHT22;15002;52.028;5.670;2024-01-10T06:55:50;-2.70;99.90
27559;DHT22;15002;52.028;5.670;2024-01-10T06:58:16;-2.60;99.90
27559;DHT22;15002;52.028;5.670;2024-01-10T07:00:43;-2.50;99.90
27559;DHT22;15002;52.028;5.670;2024-01-10T07:03:08;-2.70;99.90
27559;DHT22;15002;52.028;5.670;2024-01-10T07:05:40;-2.90;99.90
27559;DHT22;15002;52.028;5.670;2024-01-10T07:08:06;-3.20;99.90
27559;DHT22;15002;52.028;5.670;2024-01-10T07:10:31;-3.00;99.90
27559;DHT22;15002;52.028;5.670;2024-01-10T07:12:57;-3.10;99.90
27559;DHT22;15002;52.028;5.670;2024-01-10T07:15:23;-3.00;99.90
27559;DHT22;15002;52.028;5.670;2024-01-10T07:17:48;-3.00;99.90
27559;DHT22;15002;52.028;5.670;2024-01-10T07:20:14;-2.90;99.90
27559;DHT22;15002;52.028;5.670;2024-01-10T07:22:40;-2.70;99.90
27559;DHT22;15002;52.028;5.670;2024-01-10T07:25:07;-2.90;99.90
27559;DHT22;15002;52.028;5.670;2024-01-10T07:27:34;-2.70;99.90
27559;DHT22;15002;52.028;5.670;2024-01-10T07:30:04;-2.40;99.90
27559;DHT22;15002;52.028;5.670;2024-01-10T07:32:30;-2.70;99.90
27559;DHT22;15002;52.028;5.670;2024-01-10T07:34:56;-2.70;99.90
27559;DHT22;15002;52.028;5.670;2024-01-10T07:37:23;-2.70;99.90
27559;DHT22;15002;52.028;5.670;2024-01-10T07:39:49;-2.90;99.90
27559;DHT22;15002;52.028;5.670;2024-01-10T07:42:16;-2.80;99.90
27559;DHT22;15002;52.028;5.670;2024-01-10T07:44:43;-2.60;99.90
27559;DHT22;15002;52.028;5.670;2024-01-10T07:47:09;-2.30;99.90
27559;DHT22;15002;52.028;5.670;2024-01-10T07:49:36;-2.10;99.90
27559;DHT22;15002;52.028;5.670;2024-01-10T07:52:03;-2.30;99.90
27559;DHT22;15002;52.028;5.670;2024-01-10T07:54:30;-2.30;99.90
27559;DHT22;15002;52.028;5.670;2024-01-10T07:56:57;-2.50;99.90
27559;DHT22;15002;52.028;5.670;2024-01-10T07:59:23;-2.60;99.90
27559;DHT22;15002;52.028;5.670;2024-01-10T08:01:56;-2.70;99.90
27559;DHT22;15002;52.028;5.670;2024-01-10T08:04:26;-2.70;99.90
27559;DHT22;15002;52.028;5.670;2024-01-10T08:06:52;-2.50;99.90
27559;DHT22;15002;52.028;5.670;2024-01-10T08:09:18;-2.40;99.90
27559;DHT22;15002;52.028;5.670;2024-01-10T08:11:47;-2.50;99.90
27559;DHT22;15002;52.028;5.670;2024-01-10T08:14:14;-2.20;99.90
27559;DHT22;15002;52.028;5.670;2024-01-10T08:16:41;-2.20;99.90
27559;DHT22;15002;52.028;5.670;2024-01-10T08:19:07;-2.20;99.90
27559;DHT22;15002;52.028;5.670;2024-01-10T08:21:33;-2.30;99.90
27559;DHT22;15002;52.028;5.670;2024-01-10T08:23:59;-1.90;99.90
27559;DHT22;15002;52.028;5.670;2024-01-10T08:26:25;-1.90;99.90
27559;DHT22;15002;52.028;5.670;2024-01-10T08:28:52;-1.80;99.90
27559;DHT22;15002;52.028;5.670;2024-01-10T08:31:18;-1.60;99.90
27559;DHT22;15002;52.028;5.670;2024-01-10T08:33:44;-1.60;99.90
27559;DHT22;15002;52.028;5.670;2024-01-10T08:36:10;-2.00;99.90
27559;DHT22;15002;52.028;5.670;2024-01-10T08:38:36;-1.80;99.90
27559;DHT22;15002;52.028;5.670;2024-01-10T08:41:02;-1.90;99.90
27559;DHT22;15002;52.028;5.670;2024-01-10T08:43:29;-1.90;99.90
27559;DHT22;15002;52.028;5.670;2024-01-10T08:45:54;-1.90;99.90
27559;DHT22;15002;52.028;5.670;2024-01-10T08:48:20;-1.60;99.90
27559;DHT22;15002;52.028;5.670;2024-01-10T08:50:45;-1.60;99.90
27559;DHT22;15002;52.028;5.670;2024-01-10T08:53:11;-1.90;99.90
27559;DHT22;15002;52.028;5.670;2024-01-10T08:55:37;-1.80;99.90
27559;DHT22;15002;52.028;5.670;2024-01-10T08:58:03;-1.40;99.90
27559;DHT22;15002;52.028;5.670;2024-01-10T09:00:29;-1.40;99.90
27559;DHT22;15002;52.028;5.670;2024-01-10T09:02:55;-1.80;99.90
27559;DHT22;15002;52.028;5.670;2024-01-10T09:05:20;-1.70;99.90
27559;DHT22;15002;52.028;5.670;2024-01-10T09:07:47;-1.40;99.90
27559;DHT22;15002;52.028;5.670;2024-01-10T09:10:13;-1.40;99.90
27559;DHT22;15002;52.028;5.670;2024-01-10T09:12:39;-1.50;99.90
27559;DHT22;15002;52.028;5.670;2024-01-10T09:15:04;-1.20;99.90
27559;DHT22;15002;52.028;5.670;2024-01-10T09:17:33;-1.30;99.90
27559;DHT22;15002;52.028;5.670;2024-01-10T09:19:59;-1.00;99.90
27559;DHT22;15002;52.028;5.670;2024-01-10T09:22:27;-0.90;99.90
27559;DHT22;15002;52.028;5.670;2024-01-10T09:24:53;-0.80;99.90
27559;DHT22;15002;52.028;5.670;2024-01-10T09:27:19;-0.90;99.90
27559;DHT22;15002;52.028;5.670;2024-01-10T09:29:45;-0.90;99.90
27559;DHT22;15002;52.028;5.670;2024-01-10T09:32:10;-0.60;99.90
27559;DHT22;15002;52.028;5.670;2024-01-10T09:34:36;-1.00;99.90
27559;DHT22;15002;52.028;5.670;2024-01-10T09:37:02;-0.90;99.90
27559;DHT22;15002;52.028;5.670;2024-01-10T09:39:27;-1.10;99.90
27559;DHT22;15002;52.028;5.670;2024-01-10T09:41:53;-1.00;99.90
27559;DHT22;15002;52.028;5.670;2024-01-10T09:44:20;-0.90;99.90
27559;DHT22;15002;52.028;5.670;2024-01-10T09:46:51;-0.80;99.90
27559;DHT22;15002;52.028;5.670;2024-01-10T09:49:17;-0.40;99.90
27559;DHT22;15002;52.028;5.670;2024-01-10T09:51:45;-0.10;99.90
27559;DHT22;15002;52.028;5.670;2024-01-10T09:54:14;0.20;99.90
27559;DHT22;15002;52.028;5.670;2024-01-10T09:56:41;0.10;99.90
27559;DHT22;15002;52.028;5.670;2024-01-10T09:59:07;0.20;99.90
27559;DHT22;15002;52.028;5.670;2024-01-10T10:01:39;0.40;99.90
27559;DHT22;15002;52.028;5.670;2024-01-10T10:04:07;0.20;99.90
27559;DHT22;15002;52.028;5.670;2024-01-10T10:06:34;0.40;99.90
27559;DHT22;15002;52.028;5.670;2024-01-10T10:09:00;0.90;98.30
27559;DHT22;15002;52.028;5.670;2024-01-10T10:11:26;0.70;98.20
27559;DHT22;15002;52.028;5.670;2024-01-10T10:13:52;0.80;98.30
27559;DHT22;15002;52.028;5.670;2024-01-10T10:16:24;0.70;97.80
27559;DHT22;15002;52.028;5.670;2024-01-10T10:18:53;0.90;97.30
27559;DHT22;15002;52.028;5.670;2024-01-10T10:21:24;1.00;96.30
27559;DHT22;15002;52.028;5.670;2024-01-10T10:24:01;0.80;96.70
27559;DHT22;15002;52.028;5.670;2024-01-10T10:26:32;0.80;96.10
27559;DHT22;15002;52.028;5.670;2024-01-10T10:28:58;0.90;96.00
27559;DHT22;15002;52.028;5.670;2024-01-10T10:31:24;0.80;96.10
27559;DHT22;15002;52.028;5.670;2024-01-10T10:33:50;1.00;96.00
27559;DHT22;15002;52.028;5.670;2024-01-10T10:36:16;1.20;94.70
27559;DHT22;15002;52.028;5.670;2024-01-10T10:38:42;1.30;94.70
27559;DHT22;15002;52.028;5.670;2024-01-10T10:41:08;1.20;94.50
27559;DHT22;15002;52.028;5.670;2024-01-10T10:43:38;1.30;94.90
27559;DHT22;15002;52.028;5.670;2024-01-10T10:46:08;1.50;94.00
27559;DHT22;15002;52.028;5.670;2024-01-10T10:48:43;1.80;93.20
27559;DHT22;15002;52.028;5.670;2024-01-10T10:53:43;2.00;91.60
27559;DHT22;15002;52.028;5.670;2024-01-10T10:56:11;1.60;92.00
27559;DHT22;15002;52.028;5.670;2024-01-10T10:58:42;2.00;92.10
27559;DHT22;15002;52.028;5.670;2024-01-10T11:01:11;1.80;91.40
27559;DHT22;15002;52.028;5.670;2024-01-10T11:03:38;2.00;91.30
27559;DHT22;15002;52.028;5.670;2024-01-10T11:06:12;1.90;91.00
27559;DHT22;15002;52.028;5.670;2024-01-10T11:08:59;2.10;91.00
27559;DHT22;15002;52.028;5.670;2024-01-10T11:25:15;1.90;88.80
27559;DHT22;15002;52.028;5.670;2024-01-10T11:27:43;1.70;90.60
27559;DHT22;15002;52.028;5.670;2024-01-10T11:30:10;2.00;90.20
27559;DHT22;15002;52.028;5.670;2024-01-10T11:32:37;2.10;90.00
27559;DHT22;15002;52.028;5.670;2024-01-10T11:35:15;2.10;89.40
27559;DHT22;15002;52.028;5.670;2024-01-10T11:37:45;2.00;88.90
27559;DHT22;15002;52.028;5.670;2024-01-10T11:40:12;1.80;88.60
27559;DHT22;15002;52.028;5.670;2024-01-10T11:42:45;2.00;89.30
27559;DHT22;15002;52.028;5.670;2024-01-10T11:47:59;2.10;88.40
27559;DHT22;15002;52.028;5.670;2024-01-10T11:50:25;2.20;87.80
27559;DHT22;15002;52.028;5.670;2024-01-10T11:52:54;2.20;87.30
27559;DHT22;15002;52.028;5.670;2024-01-10T11:55:57;2.10;87.30
27559;DHT22;15002;52.028;5.670;2024-01-10T11:58:28;2.00;87.90
27559;DHT22;15002;52.028;5.670;2024-01-10T12:00:55;2.20;87.40
27559;DHT22;15002;52.028;5.670;2024-01-10T12:03:21;2.30;86.00
27559;DHT22;15002;52.028;5.670;2024-01-10T12:05:48;2.30;85.60
27559;DHT22;15002;52.028;5.670;2024-01-10T12:08:14;2.30;85.80
27559;DHT22;15002;52.028;5.670;2024-01-10T12:10:40;2.30;85.00
27559;DHT22;15002;52.028;5.670;2024-01-10T12:13:06;2.30;85.00
27559;DHT22;15002;52.028;5.670;2024-01-10T12:15:32;2.40;85.70
27559;DHT22;15002;52.028;5.670;2024-01-10T12:17:57;2.40;86.10
27559;DHT22;15002;52.028;5.670;2024-01-10T12:20:23;2.20;85.70
27559;DHT22;15002;52.028;5.670;2024-01-10T12:22:49;2.30;85.20
27559;DHT22;15002;52.028;5.670;2024-01-10T12:25:14;2.10;86.00
27559;DHT22;15002;52.028;5.670;2024-01-10T12:27:40;2.20;86.50
27559;DHT22;15002;52.028;5.670;2024-01-10T12:30:06;2.50;86.20
27559;DHT22;15002;52.028;5.670;2024-01-10T12:32:33;2.40;86.20
27559;DHT22;15002;52.028;5.670;2024-01-10T12:35:02;2.60;85.10
27559;DHT22;15002;52.028;5.670;2024-01-10T12:37:28;2.20;85.50
27559;DHT22;15002;52.028;5.670;2024-01-10T12:39:54;2.20;87.30
27559;DHT22;15002;52.028;5.670;2024-01-10T12:42:20;2.40;87.10
27559;DHT22;15002;52.028;5.670;2024-01-10T12:44:45;2.30;87.10
27559;DHT22;15002;52.028;5.670;2024-01-10T12:47:22;2.20;86.50
27559;DHT22;15002;52.028;5.670;2024-01-10T12:49:49;2.30;86.60
27559;DHT22;15002;52.028;5.670;2024-01-10T12:52:14;2.20;87.00
27559;DHT22;15002;52.028;5.670;2024-01-10T12:54:40;2.30;86.40
27559;DHT22;15002;52.028;5.670;2024-01-10T12:57:06;2.50;87.10
27559;DHT22;15002;52.028;5.670;2024-01-10T12:59:34;2.90;85.20
27559;DHT22;15002;52.028;5.670;2024-01-10T13:02:00;2.70;84.50
27559;DHT22;15002;52.028;5.670;2024-01-10T13:04:26;2.80;85.50
27559;DHT22;15002;52.028;5.670;2024-01-10T13:06:52;2.70;84.60
27559;DHT22;15002;52.028;5.670;2024-01-10T13:09:18;2.40;85.90
27559;DHT22;15002;52.028;5.670;2024-01-10T13:11:44;2.60;85.50
27559;DHT22;15002;52.028;5.670;2024-01-10T13:14:11;2.80;84.90
27559;DHT22;15002;52.028;5.670;2024-01-10T13:16:37;2.90;85.00
27559;DHT22;15002;52.028;5.670;2024-01-10T13:19:03;3.30;84.00
27559;DHT22;15002;52.028;5.670;2024-01-10T13:21:28;3.50;83.40
27559;DHT22;15002;52.028;5.670;2024-01-10T13:23:54;3.10;82.90
27559;DHT22;15002;52.028;5.670;2024-01-10T13:26:20;2.80;84.40
27559;DHT22;15002;52.028;5.670;2024-01-10T13:28:46;2.80;85.10
27559;DHT22;15002;52.028;5.670;2024-01-10T13:31:11;3.20;84.40
27559;DHT22;15002;52.028;5.670;2024-01-10T13:33:37;3.20;83.90
27559;DHT22;15002;52.028;5.670;2024-01-10T13:36:04;2.80;84.50
27559;DHT22;15002;52.028;5.670;2024-01-10T13:38:30;2.40;86.00
27559;DHT22;15002;52.028;5.670;2024-01-10T13:40:56;2.50;86.80
27559;DHT22;15002;52.028;5.670;2024-01-10T13:43:22;2.60;86.20
27559;DHT22;15002;52.028;5.670;2024-01-10T13:45:48;2.50;86.70
27559;DHT22;15002;52.028;5.670;2024-01-10T13:48:13;2.70;87.30
27559;DHT22;15002;52.028;5.670;2024-01-10T13:50:39;2.90;86.30
27559;DHT22;15002;52.028;5.670;2024-01-10T13:53:05;3.00;86.20
27559;DHT22;15002;52.028;5.670;2024-01-10T13:55:31;2.70;87.10
27559;DHT22;15002;52.028;5.670;2024-01-10T13:57:57;3.30;86.20
27559;DHT22;15002;52.028;5.670;2024-01-10T14:00:22;3.60;85.00
27559;DHT22;15002;52.028;5.670;2024-01-10T14:02:49;3.50;84.20
27559;DHT22;15002;52.028;5.670;2024-01-10T14:05:15;3.20;85.30
27559;DHT22;15002;52.028;5.670;2024-01-10T14:07:41;3.20;86.60
27559;DHT22;15002;52.028;5.670;2024-01-10T14:10:10;3.10;86.60
27559;DHT22;15002;52.028;5.670;2024-01-10T14:12:38;3.40;85.30
27559;DHT22;15002;52.028;5.670;2024-01-10T14:15:04;3.20;85.90
27559;DHT22;15002;52.028;5.670;2024-01-10T14:17:30;3.20;86.30
27559;DHT22;15002;52.028;5.670;2024-01-10T14:19:56;3.50;85.80
27559;DHT22;15002;52.028;5.670;2024-01-10T14:22:21;3.30;85.60
27559;DHT22;15002;52.028;5.670;2024-01-10T14:24:49;2.90;87.20
27559;DHT22;15002;52.028;5.670;2024-01-10T14:27:16;3.30;87.30
27559;DHT22;15002;52.028;5.670;2024-01-10T14:29:42;3.40;86.00
27559;DHT22;15002;52.028;5.670;2024-01-10T14:32:07;3.50;85.50
27559;DHT22;15002;52.028;5.670;2024-01-10T14:34:33;3.10;86.00
27559;DHT22;15002;52.028;5.670;2024-01-10T14:36:59;2.90;87.80
27559;DHT22;15002;52.028;5.670;2024-01-10T14:39:24;2.80;88.10
27559;DHT22;15002;52.028;5.670;2024-01-10T14:41:50;2.70;89.30
27559;DHT22;15002;52.028;5.670;2024-01-10T14:44:16;2.80;89.00
27559;DHT22;15002;52.028;5.670;2024-01-10T14:46:41;3.00;89.10
27559;DHT22;15002;52.028;5.670;2024-01-10T14:49:07;3.30;87.90
27559;DHT22;15002;52.028;5.670;2024-01-10T14:51:33;3.00;87.60
27559;DHT22;15002;52.028;5.670;2024-01-10T14:53:58;3.10;88.20
27559;DHT22;15002;52.028;5.670;2024-01-10T14:56:24;3.20;87.90
27559;DHT22;15002;52.028;5.670;2024-01-10T14:58:50;2.90;88.30
27559;DHT22;15002;52.028;5.670;2024-01-10T15:01:16;3.00;88.70
27559;DHT22;15002;52.028;5.670;2024-01-10T15:03:43;2.70;89.40
27559;DHT22;15002;52.028;5.670;2024-01-10T15:06:09;2.80;89.40
27559;DHT22;15002;52.028;5.670;2024-01-10T15:08:34;2.60;90.00
27559;DHT22;15002;52.028;5.670;2024-01-10T15:11:01;2.80;90.00
27559;DHT22;15002;52.028;5.670;2024-01-10T15:13:27;2.60;90.10
27559;DHT22;15002;52.028;5.670;2024-01-10T15:15:52;2.50;90.40
27559;DHT22;15002;52.028;5.670;2024-01-10T15:18:18;2.50;90.30
27559;DHT22;15002;52.028;5.670;2024-01-10T15:20:45;2.50;90.10
27559;DHT22;15002;52.028;5.670;2024-01-10T15:23:11;2.40;90.70
27559;DHT22;15002;52.028;5.670;2024-01-10T15:25:37;2.50;90.70
27559;DHT22;15002;52.028;5.670;2024-01-10T15:28:02;2.70;90.30
27559;DHT22;15002;52.028;5.670;2024-01-10T15:30:29;2.90;89.90
27559;DHT22;15002;52.028;5.670;2024-01-10T15:32:55;3.20;88.70
27559;DHT22;15002;52.028;5.670;2024-01-10T15:35:20;3.10;88.60
27559;DHT22;15002;52.028;5.670;2024-01-10T15:37:46;3.20;88.40
27559;DHT22;15002;52.028;5.670;2024-01-10T15:40:12;2.70;90.10
27559;DHT22;15002;52.028;5.670;2024-01-10T15:42:38;2.90;90.00
27559;DHT22;15002;52.028;5.670;2024-01-10T15:45:04;2.60;90.20
27559;DHT22;15002;52.028;5.670;2024-01-10T15:47:31;2.20;91.10
27559;DHT22;15002;52.028;5.670;2024-01-10T15:49:57;2.30;91.40
27559;DHT22;15002;52.028;5.670;2024-01-10T15:52:23;2.10;91.50